New Hampshire Logo

Hampton, NH Single Family Real Estate Listings

89 Total Real Estate Listings * Click on table heading to sort
Date Posted Property Type Style Address Price Living Area Lot Size Price/Sq Ft.
2018-08-15 Single Family Colonial 19 Munsey Hampton, NH 03842 $769,000 3,966 sq. ft. 96,703 sq. ft. $194
2018-08-15 Single Family Condex; Contemporary 8B Summerwood Hampton, NH 03842 $432,900 2,606 sq. ft. 64,469 sq. ft. $166
2018-08-14 Single Family Ranch 303 Mill Hampton, NH 03842 $275,000 888 sq. ft. 41,382 sq. ft. $310
2018-08-14 Single Family Cottage/Camp 96 Glade Hampton, NH 03842 $250,000 702 sq. ft. 2,614 sq. ft. $356
2018-08-10 Single Family Contemporary; Townhouse 33 Ocean Hampton, NH 03862 $445,900 1,386 sq. ft. 14,375 sq. ft. $322
2018-08-09 Single Family Townhouse 33 Ocean Hampton, NH 03862 $379,900 1,664 sq. ft. 14,375 sq. ft. $228
2018-08-09 Single Family Ranch 15 Moulton Hampton, NH 03842 $349,900 1,148 sq. ft. 15,682 sq. ft. $305
2018-08-09 Single Family Multi-Level; Walkout Lower Level 71 Plymouth Hampton, NH 03842 $1,795,000 5,234 sq. ft. 8,712 sq. ft. $343
2018-08-09 Single Family Colonial 29 Gale Hampton, NH 03842 $749,000 4,532 sq. ft. 60,984 sq. ft. $165
2018-08-08 Single Family Contemporary 52 Esker Hampton, NH 03842 $449,000 1,991 sq. ft. 25,700 sq. ft. $226
2018-08-06 Single Family Cape 191 High Hampton, NH 03842 $549,000 2,192 sq. ft. 40,946 sq. ft. $250
2018-08-06 Single Family Colonial 35 Presidential Hampton, NH 03842 $510,000 3,152 sq. ft. 10,890 sq. ft. $162
2018-08-03 Single Family Split Level 2 Carolan Hampton, NH 03842 $400,000 1,928 sq. ft. 14,810 sq. ft. $207
2018-08-02 Single Family Craftsman 230 Exeter Hampton, NH 03842 $654,900 2,300 sq. ft. 37,026 sq. ft. $285
2018-08-02 Single Family Colonial 6 Seavey Hampton, NH 03842 $439,900 3,146 sq. ft. 11,761 sq. ft. $140
2018-08-02 Single Family Saltbox 11 Elliott Hampton, NH 03842 $424,900 1,696 sq. ft. 10,454 sq. ft. $251
2018-08-02 Single Family Colonial 9 Longwood Hampton, NH 03842 $499,000 2,672 sq. ft. 12,632 sq. ft. $187
2018-07-31 Single Family Cottage/Camp 11 Acadia Hampton, NH 03842 $279,900 620 sq. ft. 2,614 sq. ft. $451
2018-07-30 Single Family Ranch 372 Exeter Rd Hampton, NH 03842 $599,000 2,080 sq. ft. 469,577 sq. ft. $288
2018-07-26 Single Family Freestanding; Multi-Level 91 North Shore Hampton, NH 03842 $429,900 1,848 sq. ft. 4,356 sq. ft. $233
2018-07-24 Single Family Cape 4 12th Hampton, NH 03842 $539,900 1,310 sq. ft. 4,792 sq. ft. $412
2018-07-23 Single Family 78 Mace Hampton, NH 03842 $425,000 3,035 sq. ft. 26,572 sq. ft. $140
2018-07-22 Single Family Ranch 3 Ward Lane Hampton, NH 03842 $469,000 2,212 sq. ft. 10,890 sq. ft. $212
2018-07-21 Single Family Colonial 19 Thayer Hampton, NH 03842 $425,000 3,323 sq. ft. 13,068 sq. ft. $128
2018-07-18 Single Family Bungalow 14 Johnson Hampton, NH 03842 $234,900 426 sq. ft. 3,049 sq. ft. $551
2018-07-18 Single Family Cottage/Camp 25 Perkins Hampton, NH 03842 $277,000 576 sq. ft. 2,178 sq. ft. $481
2018-07-14 Single Family Colonial 8 Springhead Hampton, NH 03842 $535,000 3,491 sq. ft. 37,462 sq. ft. $153
2018-07-13 Single Family Ranch 89 Carolan Hampton, NH 03842 $412,900 2,328 sq. ft. 19,166 sq. ft. $177
2018-07-13 Single Family Ranch 6 Josephine Hampton, NH 03842 $289,900 1,308 sq. ft. 13,068 sq. ft. $222
2018-07-12 Single Family Colonial 251 Landing Hampton, NH 03842 $499,900 1,910 sq. ft. 16,988 sq. ft. $262
2018-07-12 Single Family Cape 488 High Hampton, NH 03842 $949,000 3,597 sq. ft. 14,375 sq. ft. $264
2018-07-11 Single Family Cottage/Camp 42 Boars Head Hampton, NH 03842 $325,000 575 sq. ft. 1,742 sq. ft. $565
2018-07-09 Single Family Colonial 713 Ocean Hampton, NH 03842 $625,000 1,296 sq. ft. 2,614 sq. ft. $482
2018-07-03 Single Family Bungalow; Cape; Cottage/Camp 1 Nudd Hampton, NH 03842 $750,000 2,276 sq. ft. 2,614 sq. ft. $330
2018-06-28 Single Family Gambrel 22 Nudd Hampton, NH 03842 $399,900 1,000 sq. ft. 4,792 sq. ft. $400
2018-06-27 Single Family Colonial 8 Baron Hampton, NH 03842 $679,900 2,692 sq. ft. 46,609 sq. ft. $253
2018-06-26 Single Family A Frame 71 Hobson Hampton, NH 03842 $309,000 986 sq. ft. 2,614 sq. ft. $313
2018-06-21 Single Family Raised Ranch 112 Glade Hampton, NH 03842 $479,000 2,220 sq. ft. 5,663 sq. ft. $216
2018-06-21 Single Family Cottage/Camp; Ranch 15 Robin Hampton, NH 03842 $275,000 900 sq. ft. 9,148 sq. ft. $306
2018-06-20 Single Family Contemporary 463 Ocean Hampton, NH 03842 $329,000 1,203 sq. ft. 173,804 sq. ft. $273
2018-06-13 Single Family Colonial 28 Sweetbriar Hampton, NH 03842 $500,000 3,133 sq. ft. 14,375 sq. ft. $160
2018-06-13 Single Family Ranch 35 Taylor River Estates Hampton, NH 03824 $239,900 1,240 sq. ft. 14,375 sq. ft. $193
2018-06-11 Single Family Garden 6 N Hampton, NH 03842 $172,000 504 sq. ft. 5,227 sq. ft. $341
2018-06-11 Single Family Cape 41 Norton Hampton, NH 03842 $499,900 2,144 sq. ft. 15,246 sq. ft. $233
2018-06-11 Single Family Cape 3 Windmill Hampton, NH 03842 $559,000 2,960 sq. ft. 11,326 sq. ft. $189
2018-06-10 Single Family Cape; Cottage/Camp 15 Nudd Hampton, NH 03842 $450,000 1,397 sq. ft. 4,792 sq. ft. $322
2018-06-10 Single Family Colonial 14 Rings Hampton, NH 03842 $727,900 3,864 sq. ft. 28,314 sq. ft. $188
2018-06-06 Single Family Ranch 79 Brown Hampton, NH 03842 $349,900 1,072 sq. ft. 3,485 sq. ft. $326
2018-06-06 Single Family Cape 3 Langdale Hampton, NH 03842 $390,000 1,572 sq. ft. 15,246 sq. ft. $248
2018-06-05 Single Family Cape 37 Barbour Hampton, NH 03842 $539,000 1,535 sq. ft. 217,800 sq. ft. $351
2018-06-01 Single Family Cottage/Camp 22 1/2 I Street Hampton, NH 03842 $319,900 1,102 sq. ft. 5,227 sq. ft. $290
2018-05-30 Single Family Cape 237 Exeter Hampton, NH 03842 $349,900 1,482 sq. ft. 16,988 sq. ft. $236
2018-05-29 Single Family Ranch 12 Trafford Hampton, NH 03842 $439,900 1,417 sq. ft. 14,375 sq. ft. $310
2018-05-20 Single Family Colonial 247 Winnacunnet Hampton, NH 03842 $409,900 2,590 sq. ft. 17,424 sq. ft. $158
2018-05-17 Single Family Colonial 1 Sapphire Avenue Hampton, NH 03842 $474,000 3,215 sq. ft. 3,049 sq. ft. $147
2018-05-17 Single Family Contemporary 8 Beach Plum Hampton, NH 03842 $1,675,000 3,734 sq. ft. 4,792 sq. ft. $449
2018-05-17 Single Family Modern Architecture 1024 Ocean Hampton, NH 03842 $2,650,000 4,244 sq. ft. 10,454 sq. ft. $624
2018-05-16 Single Family Cape 292 Mill Hampton, NH 03842 $350,000 1,344 sq. ft. 32,670 sq. ft. $260
2018-05-14 Single Family Garrison 165 Island Hampton, NH 03842 $620,000 3,272 sq. ft. 19,602 sq. ft. $189
2018-05-12 Single Family Conversion 783 Ocean Hampton, NH 03842 $664,900 1,974 sq. ft. 5,227 sq. ft. $337
2018-05-12 Single Family New Englander 11 Dearborn Hampton, NH 03842 $359,900 1,354 sq. ft. 5,663 sq. ft. $266
2018-05-10 Single Family Colonial 15 Dumas Hampton, NH 03842 $1,150,000 2,094 sq. ft. 5,663 sq. ft. $549
2018-05-10 Single Family Colonial 134 Landing Hampton, NH 03842 $484,900 2,509 sq. ft. 15,246 sq. ft. $193
2018-05-10 Single Family Contemporary 59 Esker Hampton, NH 03842 $439,900 2,260 sq. ft. 8,276 sq. ft. $195
2018-05-09 Single Family Antique; Colonial; Farmhouse; New Englander 186 Little River Hampton, NH 03842 $574,000 3,054 sq. ft. 17,424 sq. ft. $188
2018-05-09 Single Family Colonial; Farmhouse; W/Addition 435 Exeter Hampton, NH 03842 $1,167,500 4,118 sq. ft. 276,606 sq. ft. $284
2018-05-09 Single Family Ranch 27 Purington Hampton, NH 03842 $399,750 1,524 sq. ft. 142,877 sq. ft. $262
2018-05-09 Single Family Cape 323 High Hampton, NH 03842 $400,000 1,760 sq. ft. 10,454 sq. ft. $227
2018-04-25 Single Family Colonial 34 Barbour Hampton, NH 03842 $599,900 2,960 sq. ft. 13,504 sq. ft. $203
2018-04-21 Single Family Colonial 6 Thirteenth Hampton, NH 03842 $582,900 1,680 sq. ft. 4,792 sq. ft. $347
2018-04-20 Single Family Colonial 34 Gale Rd Hampton, NH 03842 $799,900 5,218 sq. ft. 50,965 sq. ft. $153
2018-04-19 Single Family Cape 767 Ocean Boulevard Hampton, NH 03842 $725,000 1,740 sq. ft. 5,227 sq. ft. $417
2018-04-18 Single Family Conversion 955 Ocean Hampton, NH 03842 $119,900 219 sq. ft. 15,682 sq. ft. $547
2018-04-09 Single Family New Englander 33 Dover Hampton, NH 03842 $745,000 1,742 sq. ft. 3,920 sq. ft. $428
2018-04-06 Single Family Modern Architecture 10 Ancient Hampton, NH 03842 $2,399,000 3,600 sq. ft. 10,454 sq. ft. $666
2018-04-04 Single Family Cottage/Camp 35 Mooring Hampton, NH 03842 $315,000 768 sq. ft. 3,049 sq. ft. $410
2018-03-05 Single Family Cottage/Camp 20 Page Hampton, NH 03842 $239,000 584 sq. ft. 2,614 sq. ft. $409
2018-02-19 Single Family Contemporary 19 Atlantic Hampton, NH 03842 $369,000 745 sq. ft. 15,246 sq. ft. $495
2018-02-16 Single Family Raised Ranch 10 Epping Hampton, NH 03842 $545,000 702 sq. ft. 5,227 sq. ft. $776
2018-01-30 Single Family Craftsman 7 Mccarron Hampton, NH 03842 $750,000 2,354 sq. ft. 25,700 sq. ft. $319
2018-01-26 Single Family Craftsman 8 Mccarron Hampton, NH 03842 $719,000 2,507 sq. ft. 20,038 sq. ft. $287
2018-01-18 Single Family Craftsman 6 Mccarron Hampton, NH 03842 $692,500 2,292 sq. ft. 67,082 sq. ft. $302
2018-01-15 Single Family Craftsman 9 Mccarron Hampton, NH 03842 $639,900 1,944 sq. ft. 67,082 sq. ft. $329
2017-12-22 Single Family Cape 28 Diane Hampton, NH 03842 $268,999 696 sq. ft. 2,614 sq. ft. $386
2017-11-29 Single Family 19 Highland Hampton, NH 03842 $399,900 2,436 sq. ft. 3,920 sq. ft. $164
2017-11-24 Single Family Bungalow 10 Brooke's Hampton, NH 03842 $529,900 1,922 sq. ft. 87,556 sq. ft. $276
2017-07-28 Single Family Colonial; Garrison 14 Richard Hampton, NH 03842 $375,000 2,506 sq. ft. 10,454 sq. ft. $150
2017-01-12 Single Family Colonial; Multi-Family 809 Ocean Hampton, NH 03842 $1,275,000 4,515 sq. ft. 5,227 sq. ft. $282
2014-10-01 Single Family Contemporary; Walkout Lower Level 435 Ocean Hampton, NH 03842 $599,900 3,494 sq. ft. 24,394 sq. ft. $172